createdAt,value
2019-03-21T00:01:24.996Z,20.16
2019-03-21T00:03:56.785Z,20.15
2019-03-21T00:06:25.208Z,20.14
2019-03-21T00:08:53.627Z,20.15
2019-03-21T00:11:56.860Z,20.14
2019-03-21T00:14:43.302Z,20.14
2019-03-21T00:17:26.865Z,20.14
2019-03-21T00:19:55.343Z,20.12
2019-03-21T00:22:23.732Z,20.11
2019-03-21T00:24:52.162Z,20.09
2019-03-21T00:27:20.553Z,20.09
2019-03-21T00:29:49.010Z,20.09
2019-03-21T00:32:17.385Z,20.07
2019-03-21T00:34:45.816Z,20.06
2019-03-21T00:37:14.233Z,20.06
2019-03-21T00:39:42.651Z,20.06
2019-03-21T00:42:11.085Z,20.05
2019-03-21T00:44:39.561Z,20.05
2019-03-21T00:47:08.003Z,20.04
2019-03-21T00:49:36.410Z,20.05
2019-03-21T00:52:04.846Z,20.04
2019-03-21T00:54:33.250Z,20.03
2019-03-21T00:57:01.663Z,20.03
2019-03-21T00:59:30.097Z,20.03
2019-03-21T01:01:58.521Z,20.04
2019-03-21T01:04:28.099Z,20.03
2019-03-21T01:06:56.507Z,20.02
2019-03-21T01:09:24.933Z,20.01
2019-03-21T01:11:53.342Z,20.03
2019-03-21T01:14:29.685Z,20.02
2019-03-21T01:16:51.969Z,20.01
2019-03-21T01:19:20.392Z,20.01
2019-03-21T01:21:48.801Z,19.99
2019-03-21T01:24:17.253Z,19.98
2019-03-21T01:26:45.674Z,19.98
2019-03-21T01:29:14.117Z,19.98
2019-03-21T01:31:42.621Z,19.98
2019-03-21T01:34:11.057Z,19.98
2019-03-21T01:36:39.498Z,19.99
2019-03-21T01:39:07.921Z,19.98
2019-03-21T01:41:36.355Z,19.96
2019-03-21T01:44:04.915Z,19.95
2019-03-21T01:46:33.357Z,19.98
2019-03-21T01:49:01.793Z,19.96
2019-03-21T01:51:30.212Z,19.96
2019-03-21T01:53:58.644Z,19.95
2019-03-21T01:56:28.921Z,19.96
2019-03-21T01:58:57.325Z,19.96
2019-03-21T02:01:25.749Z,19.96
2019-03-21T02:03:54.164Z,19.96
2019-03-21T02:06:22.961Z,19.95
2019-03-21T02:08:51.389Z,19.97
2019-03-21T02:11:19.800Z,19.94
2019-03-21T02:13:48.236Z,19.94
2019-03-21T02:16:16.658Z,19.94
2019-03-21T02:18:45.082Z,19.94
2019-03-21T02:21:13.504Z,19.95
2019-03-21T02:23:41.941Z,19.95
2019-03-21T02:26:10.345Z,19.96
2019-03-21T02:28:38.761Z,19.95
2019-03-21T02:31:07.191Z,19.94
2019-03-21T02:33:38.811Z,19.92
2019-03-21T02:36:09.881Z,19.91
2019-03-21T02:38:38.308Z,19.91
2019-03-21T02:41:15.472Z,19.91
2019-03-21T02:43:43.869Z,19.91
2019-03-21T02:46:12.291Z,19.91
2019-03-21T02:48:40.733Z,19.90
2019-03-21T02:51:09.147Z,19.90
2019-03-21T02:53:37.589Z,19.89
2019-03-21T02:56:11.662Z,19.88
2019-03-21T02:58:40.088Z,19.90
2019-03-21T03:01:08.503Z,19.88
2019-03-21T03:03:36.956Z,19.89
2019-03-21T03:06:05.442Z,19.90
2019-03-21T03:08:33.852Z,19.89
2019-03-21T03:11:11.159Z,19.88
2019-03-21T03:13:40.530Z,19.89
2019-03-21T03:16:08.958Z,19.89
2019-03-21T03:18:37.391Z,19.88
2019-03-21T03:21:05.812Z,19.87
2019-03-21T03:23:34.237Z,19.85
2019-03-21T03:26:02.663Z,19.84
2019-03-21T03:28:42.898Z,19.85
2019-03-21T03:31:11.339Z,19.86
2019-03-21T03:33:39.729Z,19.85
2019-03-21T03:36:08.159Z,19.85
2019-03-21T03:38:36.568Z,19.85
2019-03-21T03:41:13.560Z,19.86
2019-03-21T03:43:42.141Z,19.86
2019-03-21T03:46:10.562Z,19.85
2019-03-21T03:48:39.320Z,19.85
2019-03-21T03:51:07.751Z,19.84
2019-03-21T03:53:36.193Z,19.83
2019-03-21T03:56:04.857Z,19.83
2019-03-21T03:58:36.758Z,19.82
2019-03-21T04:01:05.499Z,19.81
2019-03-21T04:03:33.929Z,19.81
2019-03-21T04:06:02.335Z,19.79
2019-03-21T04:08:30.849Z,19.79
2019-03-21T04:10:59.411Z,19.79
2019-03-21T04:13:27.850Z,19.79
2019-03-21T04:15:56.320Z,19.79
2019-03-21T04:18:25.724Z,19.78
2019-03-21T04:21:03.418Z,19.78
2019-03-21T04:23:31.887Z,19.75
2019-03-21T04:26:15.733Z,19.73
2019-03-21T04:28:44.392Z,19.73
2019-03-21T04:31:12.923Z,19.75
2019-03-21T04:33:42.871Z,19.74
2019-03-21T04:36:11.319Z,19.74
2019-03-21T04:38:39.758Z,19.75
2019-03-21T04:41:08.568Z,19.75
2019-03-21T04:43:37.003Z,19.74
2019-03-21T04:46:05.511Z,19.73
2019-03-21T04:48:33.908Z,19.73
2019-03-21T04:51:02.344Z,19.71
2019-03-21T04:53:30.837Z,19.70
2019-03-21T04:55:59.268Z,19.71
2019-03-21T04:58:27.687Z,19.72
2019-03-21T05:00:57.858Z,19.72
2019-03-21T05:03:29.008Z,19.72
2019-03-21T05:05:57.449Z,19.70
2019-03-21T05:08:25.868Z,19.71
2019-03-21T05:10:54.276Z,19.70
2019-03-21T05:13:22.695Z,19.69
2019-03-21T05:15:52.540Z,19.69
2019-03-21T05:18:29.310Z,19.70
2019-03-21T05:20:58.286Z,19.71
2019-03-21T05:23:26.703Z,19.71
2019-03-21T05:25:55.189Z,19.71
2019-03-21T05:28:23.611Z,19.71
2019-03-21T05:31:07.558Z,19.72
2019-03-21T05:33:36.120Z,19.71
2019-03-21T05:36:04.925Z,19.70
2019-03-21T05:38:33.861Z,19.70
2019-03-21T05:41:02.293Z,19.70
2019-03-21T05:43:42.683Z,19.69
2019-03-21T05:46:11.109Z,19.70
2019-03-21T05:48:39.637Z,19.70
2019-03-21T05:51:08.054Z,19.70
2019-03-21T05:53:36.471Z,19.71
2019-03-21T05:56:04.914Z,19.69
2019-03-21T05:58:33.517Z,19.69
2019-03-21T06:01:12.937Z,19.68
2019-03-21T06:03:46.937Z,19.70
2019-03-21T06:06:18.433Z,19.71
2019-03-21T06:08:46.862Z,19.71
2019-03-21T06:11:15.277Z,19.71
2019-03-21T06:13:43.721Z,19.72
2019-03-21T06:16:12.329Z,19.73
2019-03-21T06:18:49.587Z,19.75
2019-03-21T06:21:32.943Z,19.77
2019-03-21T06:24:23.961Z,19.80
2019-03-21T06:27:14.982Z,19.83
2019-03-21T06:29:43.593Z,19.87
2019-03-21T06:32:13.118Z,19.91
2019-03-21T06:34:41.678Z,19.96
2019-03-21T06:37:10.085Z,20.04
2019-03-21T06:39:38.509Z,20.07
2019-03-21T06:42:06.949Z,20.12
2019-03-21T06:44:35.436Z,20.18
2019-03-21T06:47:03.879Z,20.22
2019-03-21T06:49:32.285Z,20.27
2019-03-21T06:52:00.738Z,20.32
2019-03-21T06:54:29.171Z,20.35
2019-03-21T06:56:57.607Z,20.40
2019-03-21T06:59:26.029Z,20.45
2019-03-21T07:01:54.465Z,20.52
2019-03-21T07:04:22.873Z,20.58
2019-03-21T07:06:51.319Z,20.66
2019-03-21T07:09:19.721Z,20.73
2019-03-21T07:11:48.175Z,20.81
2019-03-21T07:14:16.587Z,20.90
2019-03-21T07:16:45.000Z,20.97
2019-03-21T07:19:13.433Z,21.06
2019-03-21T07:21:41.862Z,21.14
2019-03-21T07:24:10.288Z,21.20
2019-03-21T07:26:38.705Z,21.30
2019-03-21T07:29:07.153Z,21.37
2019-03-21T07:31:35.559Z,21.47
2019-03-21T07:34:04.156Z,21.54
2019-03-21T07:36:32.609Z,21.62
2019-03-21T07:39:01.032Z,21.70
2019-03-21T07:41:29.446Z,21.78
2019-03-21T07:43:59.732Z,21.84
2019-03-21T07:46:28.151Z,21.93
2019-03-21T07:48:56.596Z,21.99
2019-03-21T07:51:25.031Z,22.06
2019-03-21T07:53:53.450Z,22.12
2019-03-21T07:56:21.879Z,22.20
2019-03-21T07:58:50.315Z,22.25
2019-03-21T08:01:18.741Z,22.30
2019-03-21T08:03:47.206Z,22.35
2019-03-21T08:06:15.613Z,22.40
2019-03-21T08:08:44.039Z,22.47
2019-03-21T08:11:12.469Z,22.51
2019-03-21T08:13:40.875Z,22.57
2019-03-21T08:16:09.311Z,22.62
2019-03-21T08:18:37.762Z,22.67
2019-03-21T08:21:06.189Z,22.70
2019-03-21T08:23:34.628Z,22.76
2019-03-21T08:26:03.059Z,22.82
2019-03-21T08:28:31.511Z,22.86
2019-03-21T08:31:08.954Z,22.93
2019-03-21T08:33:37.430Z,22.98
2019-03-21T08:36:05.893Z,23.03
2019-03-21T08:38:34.328Z,23.05
2019-03-21T08:41:02.774Z,23.10
2019-03-21T08:43:31.173Z,23.14
2019-03-21T08:45:59.596Z,23.21
2019-03-21T08:48:28.001Z,23.25
2019-03-21T08:51:07.395Z,23.30
2019-03-21T08:53:26.637Z,23.36
2019-03-21T08:55:55.066Z,23.41
2019-03-21T08:58:23.492Z,23.47
2019-03-21T09:00:51.905Z,23.52
2019-03-21T09:03:20.339Z,23.58
2019-03-21T09:05:48.745Z,23.64
2019-03-21T09:08:17.185Z,23.71
2019-03-21T09:10:45.627Z,23.81
2019-03-21T09:13:14.075Z,23.87
2019-03-21T09:15:42.516Z,23.94
2019-03-21T09:18:10.913Z,24.02
2019-03-21T09:20:39.343Z,24.11
2019-03-21T09:23:08.635Z,24.18
2019-03-21T09:25:37.058Z,24.19
2019-03-21T09:28:05.466Z,24.26
2019-03-21T09:30:33.900Z,24.33
2019-03-21T09:33:02.325Z,24.34
2019-03-21T09:35:30.733Z,24.39
2019-03-21T09:37:59.174Z,24.46
2019-03-21T09:40:27.590Z,24.51
2019-03-21T09:42:56.002Z,24.55
2019-03-21T09:45:24.452Z,24.60
2019-03-21T09:47:52.896Z,24.67
2019-03-21T09:50:29.796Z,24.73
2019-03-21T09:52:58.372Z,24.80
2019-03-21T09:55:26.804Z,24.85
2019-03-21T09:57:55.285Z,24.95
2019-03-21T10:00:31.776Z,24.98
2019-03-21T10:03:00.236Z,25.04
2019-03-21T10:05:28.992Z,25.07
2019-03-21T10:07:59.592Z,25.11
2019-03-21T10:10:32.626Z,25.16
2019-03-21T10:13:01.123Z,25.17
2019-03-21T10:15:29.887Z,25.27
2019-03-21T10:17:58.484Z,25.35
2019-03-21T10:20:26.988Z,25.39
2019-03-21T10:22:55.406Z,25.34
2019-03-21T10:25:26.493Z,25.42
2019-03-21T10:27:53.994Z,25.43
2019-03-21T10:30:36.774Z,25.42
2019-03-21T10:33:09.924Z,25.46
2019-03-21T10:35:38.436Z,25.49
2019-03-21T10:38:07.405Z,25.54
2019-03-21T10:40:35.992Z,25.58
2019-03-21T10:43:05.177Z,25.63
2019-03-21T10:45:33.661Z,25.70
2019-03-21T10:48:02.097Z,25.74
2019-03-21T10:50:37.852Z,25.77
2019-03-21T10:53:07.423Z,25.84
2019-03-21T10:55:36.210Z,25.91
2019-03-21T10:58:05.571Z,26.05
2019-03-21T11:00:34.006Z,26.09
2019-03-21T11:03:02.426Z,26.14
2019-03-21T11:05:30.838Z,26.22
2019-03-21T11:07:59.280Z,26.33
2019-03-21T11:10:27.694Z,26.35
2019-03-21T11:12:56.130Z,26.42
2019-03-21T11:15:24.541Z,26.44
2019-03-21T11:17:53.837Z,26.41
2019-03-21T11:20:34.084Z,26.53
2019-03-21T11:23:03.247Z,26.56
2019-03-21T11:25:31.650Z,26.58
2019-03-21T11:28:00.070Z,26.63
2019-03-21T11:30:33.381Z,26.44
2019-03-21T11:33:02.002Z,26.39
2019-03-21T11:35:31.253Z,26.44
2019-03-21T11:37:59.770Z,26.41
2019-03-21T11:40:28.184Z,26.19
2019-03-21T11:42:56.970Z,26.19
2019-03-21T11:45:25.401Z,26.26
2019-03-21T11:47:53.887Z,26.16
2019-03-21T11:50:22.312Z,26.10
2019-03-21T11:52:50.714Z,26.23
2019-03-21T11:55:19.261Z,26.11
2019-03-21T11:57:47.733Z,26.09
2019-03-21T12:00:16.401Z,26.05
2019-03-21T12:02:44.835Z,25.96
2019-03-21T12:05:13.319Z,26.07
2019-03-21T12:07:41.768Z,26.01
2019-03-21T12:10:12.190Z,26.02
2019-03-21T12:12:40.694Z,25.91
2019-03-21T12:15:10.859Z,25.91
2019-03-21T12:17:39.266Z,25.85
2019-03-21T12:20:13.358Z,25.83
2019-03-21T12:22:41.775Z,25.76
2019-03-21T12:25:11.248Z,25.76
2019-03-21T12:27:39.751Z,25.70
2019-03-21T12:30:11.189Z,25.73
2019-03-21T12:32:39.598Z,25.69
2019-03-21T12:35:08.670Z,25.63
2019-03-21T12:37:37.099Z,25.66
2019-03-21T12:40:07.851Z,25.64
2019-03-21T12:42:36.287Z,25.57
2019-03-21T12:45:07.983Z,25.61
2019-03-21T12:47:36.388Z,25.62
2019-03-21T12:50:07.537Z,25.60
2019-03-21T12:52:41.461Z,25.59
2019-03-21T12:55:07.527Z,25.57
2019-03-21T12:57:35.985Z,25.58
2019-03-21T13:00:10.103Z,25.53
2019-03-21T13:02:38.504Z,25.52
2019-03-21T13:05:08.971Z,25.50
2019-03-21T13:07:37.469Z,25.51
2019-03-21T13:10:06.933Z,25.45
2019-03-21T13:12:35.345Z,25.40
2019-03-21T13:15:05.543Z,25.35
2019-03-21T13:17:33.964Z,25.32
2019-03-21T13:20:02.395Z,25.30
2019-03-21T13:22:30.811Z,25.19
2019-03-21T13:24:59.274Z,25.15
2019-03-21T13:27:27.719Z,25.15
2019-03-21T13:29:56.172Z,25.03
2019-03-21T13:32:24.579Z,24.94
2019-03-21T13:34:53.001Z,24.85
2019-03-21T13:37:21.417Z,24.70
2019-03-21T13:39:49.851Z,24.59
2019-03-21T13:42:18.271Z,24.48
2019-03-21T13:44:46.709Z,24.36
2019-03-21T13:47:15.129Z,24.26
2019-03-21T13:49:43.564Z,24.18
2019-03-21T13:52:11.977Z,24.09
2019-03-21T13:54:40.415Z,24.05
2019-03-21T13:57:08.835Z,23.97
2019-03-21T13:59:37.250Z,23.89
2019-03-21T14:02:05.850Z,23.89
2019-03-21T14:04:34.258Z,23.83
2019-03-21T14:07:02.663Z,23.79
2019-03-21T14:09:31.114Z,23.75
2019-03-21T14:11:59.544Z,23.70
2019-03-21T14:14:28.140Z,23.67
2019-03-21T14:16:56.565Z,23.71
2019-03-21T14:19:25.016Z,23.66
2019-03-21T14:21:53.427Z,23.66
2019-03-21T14:24:21.971Z,23.59
2019-03-21T14:26:50.387Z,23.55
2019-03-21T14:29:18.805Z,23.51
2019-03-21T14:31:47.246Z,23.49
2019-03-21T14:34:15.653Z,23.39
2019-03-21T14:36:44.119Z,23.39
2019-03-21T14:39:12.589Z,23.36
2019-03-21T14:41:40.945Z,23.35
2019-03-21T14:44:09.400Z,23.33
2019-03-21T14:46:37.810Z,23.30
2019-03-21T14:49:06.219Z,23.33
2019-03-21T14:51:34.675Z,23.28
2019-03-21T14:54:03.076Z,23.23
2019-03-21T14:56:31.474Z,23.22
2019-03-21T14:58:59.908Z,23.18
2019-03-21T15:01:28.337Z,23.14
2019-03-21T15:03:56.840Z,23.12
2019-03-21T15:06:25.290Z,23.09
2019-03-21T15:08:53.704Z,23.09
2019-03-21T15:11:22.190Z,23.09
2019-03-21T15:13:50.631Z,23.05
2019-03-21T15:16:19.079Z,23.06
2019-03-21T15:18:47.486Z,23.04
2019-03-21T15:21:15.923Z,23.01
2019-03-21T15:23:44.379Z,22.95
2019-03-21T15:26:12.821Z,22.92
2019-03-21T15:28:41.239Z,22.93
2019-03-21T15:31:09.676Z,22.94
2019-03-21T15:33:38.097Z,22.93
2019-03-21T15:36:06.530Z,22.91
2019-03-21T15:38:34.941Z,22.90
2019-03-21T15:41:03.412Z,22.89
2019-03-21T15:43:31.869Z,22.89
2019-03-21T15:46:00.293Z,22.88
2019-03-21T15:48:28.725Z,22.89
2019-03-21T15:51:04.535Z,22.89
2019-03-21T15:53:27.301Z,22.87
2019-03-21T15:55:55.705Z,22.84
2019-03-21T15:58:24.144Z,22.81
2019-03-21T16:00:52.563Z,22.80
2019-03-21T16:03:21.020Z,22.78
2019-03-21T16:05:49.448Z,22.78
2019-03-21T16:08:17.884Z,22.78
2019-03-21T16:10:46.316Z,22.77
2019-03-21T16:13:14.726Z,22.76
2019-03-21T16:15:43.176Z,22.76
2019-03-21T16:18:11.600Z,22.74
2019-03-21T16:20:40.020Z,22.72
2019-03-21T16:23:08.477Z,22.74
2019-03-21T16:25:37.054Z,22.72
2019-03-21T16:28:05.501Z,22.73
2019-03-21T16:30:33.928Z,22.71
2019-03-21T16:33:02.346Z,22.69
2019-03-21T16:35:30.770Z,22.68
2019-03-21T16:37:59.180Z,22.67
2019-03-21T16:40:27.588Z,22.65
2019-03-21T16:42:56.029Z,22.65
2019-03-21T16:45:24.443Z,22.65
2019-03-21T16:47:52.894Z,22.63
2019-03-21T16:50:21.297Z,22.64
2019-03-21T16:52:49.746Z,22.65
2019-03-21T16:55:18.142Z,22.63
2019-03-21T16:57:46.598Z,22.61
2019-03-21T17:00:17.928Z,22.60
2019-03-21T17:02:47.412Z,22.62
2019-03-21T17:05:15.920Z,22.62
2019-03-21T17:07:44.337Z,22.60
2019-03-21T17:10:15.253Z,22.57
2019-03-21T17:12:43.753Z,22.58
2019-03-21T17:15:13.166Z,22.56
2019-03-21T17:17:41.557Z,22.56
2019-03-21T17:20:11.505Z,22.55
2019-03-21T17:22:39.940Z,22.53
2019-03-21T17:25:08.876Z,22.52
2019-03-21T17:27:37.315Z,22.52
2019-03-21T17:30:16.565Z,22.51
2019-03-21T17:32:44.984Z,22.48
2019-03-21T17:35:13.747Z,22.47
2019-03-21T17:37:42.254Z,22.45
2019-03-21T17:40:13.732Z,22.42
2019-03-21T17:42:42.173Z,22.42
2019-03-21T17:45:18.677Z,22.40
2019-03-21T17:47:47.445Z,22.39
2019-03-21T17:50:18.134Z,22.38
2019-03-21T17:52:46.838Z,22.35
2019-03-21T17:55:15.408Z,22.33
2019-03-21T17:57:43.871Z,22.30
2019-03-21T18:00:19.594Z,22.28
2019-03-21T18:02:48.280Z,22.25
2019-03-21T18:05:16.693Z,22.21
2019-03-21T18:07:45.117Z,22.19
2019-03-21T18:10:33.856Z,22.16
2019-03-21T18:13:02.805Z,22.14
2019-03-21T18:15:31.518Z,22.11
2019-03-21T18:18:00.128Z,22.08
2019-03-21T18:20:28.532Z,22.07
2019-03-21T18:22:56.959Z,22.05
2019-03-21T18:25:25.419Z,22.03
2019-03-21T18:27:54.240Z,22.00
2019-03-21T18:30:22.758Z,21.98
2019-03-21T18:32:51.246Z,21.98
2019-03-21T18:35:20.091Z,21.95
2019-03-21T18:37:48.520Z,21.93
2019-03-21T18:40:17.014Z,21.92
2019-03-21T18:42:45.472Z,21.91
2019-03-21T18:45:15.625Z,21.90
2019-03-21T18:47:44.969Z,21.88
2019-03-21T18:50:15.767Z,21.87
2019-03-21T18:52:44.259Z,21.85
2019-03-21T18:55:12.948Z,21.84
2019-03-21T18:57:41.534Z,21.83
2019-03-21T19:00:15.948Z,21.81
2019-03-21T19:02:44.353Z,21.80
2019-03-21T19:05:13.041Z,21.79
2019-03-21T19:07:41.461Z,21.77
2019-03-21T19:10:12.570Z,21.76
2019-03-21T19:12:41.024Z,21.76
2019-03-21T19:15:11.677Z,21.74
2019-03-21T19:17:40.107Z,21.73
2019-03-21T19:20:11.461Z,21.72
2019-03-21T19:22:39.906Z,21.72
2019-03-21T19:25:17.804Z,21.70
2019-03-21T19:30:08.377Z,21.72
2019-03-21T19:32:36.808Z,21.67
2019-03-21T19:35:05.962Z,21.67
2019-03-21T19:37:35.069Z,21.68
2019-03-21T19:40:08.340Z,21.67
2019-03-21T19:42:37.109Z,21.69
2019-03-21T19:45:08.769Z,21.68
2019-03-21T19:47:37.212Z,21.69
2019-03-21T19:50:11.787Z,21.71
2019-03-21T19:52:40.239Z,21.73
2019-03-21T19:55:09.305Z,21.75
2019-03-21T19:57:37.903Z,21.78
2019-03-21T20:00:09.885Z,21.80
2019-03-21T20:02:38.418Z,21.84
2019-03-21T20:05:08.555Z,21.84
2019-03-21T20:07:37.312Z,21.84
2019-03-21T20:10:10.553Z,21.86
2019-03-21T20:12:39.001Z,21.86
2019-03-21T20:15:12.420Z,21.88
2019-03-21T20:17:40.874Z,21.90
2019-03-21T20:20:12.563Z,21.91
2019-03-21T20:22:41.161Z,21.92
2019-03-21T20:25:09.944Z,21.92
2019-03-21T20:27:38.358Z,21.91
2019-03-21T20:30:09.855Z,21.91
2019-03-21T20:32:38.287Z,21.90
2019-03-21T20:35:07.859Z,21.90
2019-03-21T20:37:36.355Z,21.92
2019-03-21T20:40:08.105Z,21.91
2019-03-21T20:42:36.555Z,21.90
2019-03-21T20:45:06.901Z,21.88
2019-03-21T20:47:35.360Z,21.87
2019-03-21T20:50:04.737Z,21.87
2019-03-21T20:52:33.183Z,21.88
2019-03-21T20:55:01.633Z,21.88
2019-03-21T20:57:30.157Z,21.86
2019-03-21T20:59:58.598Z,21.84
2019-03-21T21:02:27.103Z,21.82
2019-03-21T21:04:55.517Z,21.81
2019-03-21T21:07:23.961Z,21.82
2019-03-21T21:09:52.481Z,21.81
2019-03-21T21:12:20.909Z,21.80
2019-03-21T21:14:49.373Z,21.78
2019-03-21T21:17:17.800Z,21.77
2019-03-21T21:19:46.242Z,21.77
